Hauptseite
METAR-TAF:

METAR-TAF

Flughäfen :

Flughafen Chengdu-Shuangliu

Chengdu, China

Breite: 30-40N, Länge: 104-01E, Höhe: 508 m

Beobachtung

Neuester Wetterbericht von vor 30 Minuten, um 17:00 UTC
Wind 4 kt aus Süd, variierte zwischen Süd/Südost und Süd/Südwest
Temperatur 27°C
Luftfeuchtigkeit 62%
Luftdruck 1008 hPa
Sichtweite 10 km oder mehr
keine Wolken unter 1500 m und keine Kumulonimbus oder Gewitterwolken

METAR: ZUUU 231700Z 18002MPS 150V210 CAVOK 27/19 Q1008 NOSIG

Zeit: 01:30 (17:30 UTC)

Prognose

Neuester Wetterbericht von vor 8 Stunden und 24 Minuten, um 09:06 UTC
Gültige Prognose vom 23 um 12 UTC bis 24 um 12 UTC
Wind 6 kt aus Südwest
Sichtweite: 6000 m
Aufgelockert bewölkt in der Höhe von 4000 ft

TAF: ZUUU 230906Z 2312/2412 22003MPS 6000 SCT040 TX32/2407Z TN24/2322Z

Wetterbeobachtungen und Prognosen von mehr als 4000 Flughäfen (METAR und TAF Bericht).

Die verfügbaren Stationen werden durch gelbe und rote Markierungen auf der Karte dargestellt.

Führen Sie die Maus auf sie, um den Namen der Station zu sehen.

Darauf klicken, um die Beobachtung von Wetterbeobachtungen und Prognosen zu sehen.

Um die Karte zu ändern : klicken Sie auf den grünen Tasten mit einem schwarzen Kreuz Zum Vergrößern, auf den grünen Button mit einem Gedankenstrich zu verkleinern, oder auf die grünen Pfeile für benachbarte Karten.


METAR-TAF: